6TE1 weather

Norman & White Airport
Edinburg, Texas, United States

Public forecast

Using degrees Fahrenheit for public forecast. Weather courtesy of forecast.io.

Closest aviation weather report (METAR) to Norman & White Airport

Closest report is South Texas International At Edinburg Airport, 5.1 nm (9.4 km) NNE. Retrieved 2019/10/22 17:35 UTC (10 minutes ago):

KEBG 221735Z AUTO 06012G18KT 10SM CLR 29/15 A3014 RMK AO2 T02910145

Closest aviation forecast (TAF) to Norman & White Airport

Closest forecast is Mc Allen Miller International Airport, 12.1 nm (22.4 km) SSW. Retrieved 2019/10/22 12:27 UTC (5 hours ago):

TAF KMFE 221124Z 2212/2312 03006KT P6SM SCT250 FM221700 06012G19KT P6SM FEW250 FM230000 09007KT P6SM SKC